createdAt,value
2019-04-28T00:01:26.304Z,1.60
2019-04-28T00:03:57.037Z,1.50
2019-04-28T00:06:28.055Z,1.80
2019-04-28T00:08:59.154Z,1.65
2019-04-28T00:11:31.699Z,1.60
2019-04-28T00:14:02.787Z,1.40
2019-04-28T00:16:33.531Z,2.00
2019-04-28T00:19:04.396Z,1.90
2019-04-28T00:21:53.979Z,2.00
2019-04-28T00:24:51.422Z,2.00
2019-04-28T00:27:22.416Z,1.52
2019-04-28T00:29:53.126Z,1.72
2019-04-28T00:32:24.105Z,1.57
2019-04-28T00:34:54.892Z,1.47
2019-04-28T00:37:31.768Z,1.57
2019-04-28T00:40:02.399Z,1.60
2019-04-28T00:42:33.378Z,1.60
2019-04-28T00:45:04.311Z,1.47
2019-04-28T00:47:35.297Z,1.60
2019-04-28T00:50:07.132Z,1.40
2019-04-28T00:52:37.704Z,1.50
2019-04-28T00:55:08.597Z,1.50
2019-04-28T00:57:40.957Z,1.60
2019-04-28T01:00:12.980Z,1.65
2019-04-28T01:02:44.211Z,1.70
2019-04-28T01:05:15.307Z,1.60
2019-04-28T01:07:46.163Z,1.80
2019-04-28T01:10:17.149Z,1.87
2019-04-28T01:12:48.135Z,1.80
2019-04-28T01:15:33.362Z,1.82
2019-04-28T01:18:23.737Z,1.70
2019-04-28T01:20:55.253Z,1.75
2019-04-28T01:23:26.524Z,1.70
2019-04-28T01:25:57.389Z,1.50
2019-04-28T01:28:29.730Z,1.60
2019-04-28T01:31:10.860Z,1.60
2019-04-28T01:34:03.906Z,1.52
2019-04-28T01:36:36.456Z,1.52
2019-04-28T01:39:09.940Z,1.65
2019-04-28T01:41:40.437Z,1.80
2019-04-28T01:44:12.190Z,1.80
2019-04-28T01:46:43.203Z,1.80
2019-04-28T01:49:14.096Z,1.80
2019-04-28T01:51:45.038Z,2.02
2019-04-28T01:54:15.757Z,1.70
2019-04-28T01:56:46.649Z,2.12
2019-04-28T01:59:18.063Z,2.00
2019-04-28T02:01:49.910Z,2.20
2019-04-28T02:04:20.743Z,2.20
2019-04-28T02:06:51.661Z,2.20
2019-04-28T02:09:22.312Z,2.27
2019-04-28T02:11:53.058Z,2.20
2019-04-28T02:14:23.949Z,2.20
2019-04-28T02:16:54.646Z,1.85
2019-04-28T02:19:25.518Z,2.12
2019-04-28T02:22:12.704Z,2.15
2019-04-28T02:24:43.297Z,2.30
2019-04-28T02:27:14.304Z,2.30
2019-04-28T02:29:44.964Z,2.60
2019-04-28T02:32:15.933Z,2.08
2019-04-28T02:34:46.658Z,2.42
2019-04-28T02:37:17.385Z,2.20
2019-04-28T02:39:50.232Z,2.50
2019-04-28T02:42:21.034Z,2.08
2019-04-28T02:44:52.130Z,2.70
2019-04-28T02:47:23.082Z,2.37
2019-04-28T02:50:11.568Z,2.70
2019-04-28T02:53:06.352Z,2.80
2019-04-28T02:55:37.186Z,2.77
2019-04-28T02:58:07.848Z,2.15
2019-04-28T03:00:41.009Z,2.52
2019-04-28T03:03:11.197Z,2.30
2019-04-28T03:05:41.961Z,2.55
2019-04-28T03:08:12.716Z,2.52
2019-04-28T03:10:43.668Z,2.80
2019-04-28T03:13:14.297Z,2.92
2019-04-28T03:15:45.529Z,2.98
2019-04-28T03:18:16.466Z,2.62
2019-04-28T03:20:47.221Z,2.80
2019-04-28T03:23:20.489Z,2.60
2019-04-28T03:26:12.902Z,2.58
2019-04-28T03:28:48.081Z,3.10
2019-04-28T03:32:07.855Z,2.20
2019-04-28T03:34:13.395Z,2.65
2019-04-28T03:36:44.254Z,2.75
2019-04-28T03:39:14.960Z,3.00
2019-04-28T03:41:45.752Z,2.50
2019-04-28T03:44:16.644Z,2.90
2019-04-28T03:46:52.214Z,2.70
2019-04-28T03:49:33.461Z,2.55
2019-04-28T03:52:04.758Z,2.80
2019-04-28T03:54:35.733Z,2.80
2019-04-28T03:57:06.683Z,2.90
2019-04-28T03:59:37.748Z,2.95
2019-04-28T04:02:11.302Z,2.72
2019-04-28T04:04:41.660Z,2.70
2019-04-28T04:07:12.674Z,2.83
2019-04-28T04:10:05.429Z,2.95
2019-04-28T04:12:54.089Z,2.77
2019-04-28T04:15:54.064Z,2.90
2019-04-28T04:18:30.930Z,3.02
2019-04-28T04:21:02.195Z,2.87
2019-04-28T04:23:33.078Z,3.10
2019-04-28T04:26:03.882Z,3.05
2019-04-28T04:28:34.786Z,3.37
2019-04-28T04:31:05.703Z,3.30
2019-04-28T04:33:36.522Z,3.50
2019-04-28T04:36:07.292Z,3.58
2019-04-28T04:38:40.154Z,3.10
2019-04-28T04:41:11.369Z,3.00
2019-04-28T04:43:42.345Z,3.00
2019-04-28T04:46:16.333Z,3.25
2019-04-28T04:48:47.173Z,3.37
2019-04-28T04:51:17.723Z,3.45
2019-04-28T04:53:51.116Z,3.25
2019-04-28T04:56:21.643Z,3.62
2019-04-28T04:58:52.674Z,3.30
2019-04-28T05:01:40.451Z,3.55
2019-04-28T05:04:26.371Z,3.37
2019-04-28T05:06:57.183Z,3.30
2019-04-28T05:09:29.342Z,2.95
2019-04-28T05:12:00.486Z,3.50
2019-04-28T05:14:31.321Z,3.25
2019-04-28T05:17:02.627Z,3.10
2019-04-28T05:19:33.392Z,3.35
2019-04-28T05:22:04.813Z,2.83
2019-04-28T05:24:54.622Z,3.45
2019-04-28T05:27:25.901Z,3.25
2019-04-28T05:30:00.999Z,3.20
2019-04-28T05:32:41.660Z,3.33
2019-04-28T05:35:01.684Z,3.70
2019-04-28T05:37:32.725Z,3.20
2019-04-28T05:40:03.506Z,3.47
2019-04-28T05:42:34.403Z,3.27
2019-04-28T05:45:05.498Z,3.27
2019-04-28T05:47:36.252Z,3.37
2019-04-28T05:50:19.704Z,3.17
2019-04-28T05:53:10.764Z,3.30
2019-04-28T05:56:06.515Z,3.45
2019-04-28T05:58:45.631Z,3.22
2019-04-28T06:01:32.411Z,3.35
2019-04-28T06:04:03.417Z,3.50
2019-04-28T06:06:38.004Z,3.05
2019-04-28T06:09:29.480Z,3.17
2019-04-28T06:12:00.510Z,3.12
2019-04-28T06:14:31.341Z,3.27
2019-04-28T06:17:04.075Z,3.37
2019-04-28T06:19:34.839Z,3.30
2019-04-28T06:22:05.704Z,3.33
2019-04-28T06:24:36.448Z,3.37
2019-04-28T06:27:07.282Z,3.30
2019-04-28T06:29:38.078Z,3.35
2019-04-28T06:32:09.076Z,3.47
2019-04-28T06:34:39.833Z,3.50
2019-04-28T06:37:10.500Z,3.20
2019-04-28T06:39:41.332Z,3.47
2019-04-28T06:42:12.150Z,3.20
2019-04-28T06:44:43.226Z,3.40
2019-04-28T06:47:16.672Z,3.45
2019-04-28T06:49:46.536Z,3.58
2019-04-28T06:52:17.147Z,3.40
2019-04-28T06:54:48.044Z,3.47
2019-04-28T06:57:18.902Z,3.47
2019-04-28T06:59:49.805Z,3.55
2019-04-28T07:02:20.296Z,3.77
2019-04-28T07:05:01.314Z,3.50
2019-04-28T07:07:24.105Z,3.30
2019-04-28T07:09:55.000Z,3.35
2019-04-28T07:12:25.895Z,3.40
2019-04-28T07:14:56.864Z,3.77
2019-04-28T07:17:27.712Z,3.70
2019-04-28T07:20:10.289Z,3.47
2019-04-28T07:22:41.452Z,3.40
2019-04-28T07:25:12.189Z,3.40
2019-04-28T07:27:43.032Z,3.37
2019-04-28T07:30:13.823Z,3.37
2019-04-28T07:32:44.557Z,3.30
2019-04-28T07:35:15.749Z,3.55
2019-04-28T07:37:46.553Z,3.45
2019-04-28T07:40:17.313Z,3.58
2019-04-28T07:42:48.335Z,3.52
2019-04-28T07:45:19.196Z,3.27
2019-04-28T07:47:49.916Z,3.25
2019-04-28T07:50:20.961Z,2.70
2019-04-28T07:52:56.846Z,2.98
2019-04-28T07:55:27.516Z,3.37
2019-04-28T07:57:58.506Z,3.85
2019-04-28T08:00:31.039Z,5.50
2019-04-28T08:03:01.936Z,4.10
2019-04-28T08:05:32.691Z,3.65
2019-04-28T08:08:03.581Z,3.12
2019-04-28T08:10:34.345Z,3.10
2019-04-28T08:13:05.390Z,3.25
2019-04-28T08:15:36.307Z,3.00
2019-04-28T08:18:07.195Z,3.27
2019-04-28T08:20:38.165Z,3.17
2019-04-28T08:23:09.140Z,2.30
2019-04-28T08:25:40.128Z,2.52
2019-04-28T08:28:11.853Z,2.40
2019-04-28T08:30:42.840Z,2.58
2019-04-28T08:33:24.139Z,2.60
2019-04-28T08:35:54.973Z,2.30
2019-04-28T08:38:25.906Z,2.25
2019-04-28T08:40:56.522Z,2.20
2019-04-28T08:43:27.597Z,2.33
2019-04-28T08:45:58.531Z,2.30
2019-04-28T08:48:29.264Z,2.27
2019-04-28T08:51:00.229Z,2.58
2019-04-28T08:53:30.942Z,2.17
2019-04-28T08:56:01.641Z,1.95
2019-04-28T08:58:32.509Z,2.08
2019-04-28T09:01:05.831Z,2.20
2019-04-28T09:03:36.779Z,2.10
2019-04-28T09:06:07.674Z,2.00
2019-04-28T09:08:38.739Z,1.67
2019-04-28T09:11:09.779Z,1.98
2019-04-28T09:13:43.537Z,1.72
2019-04-28T09:16:14.167Z,1.70
2019-04-28T09:18:44.939Z,1.75
2019-04-28T09:21:16.186Z,1.67
2019-04-28T09:23:47.169Z,1.60
2019-04-28T09:26:18.130Z,1.50
2019-04-28T09:28:49.299Z,1.50
2019-04-28T09:31:20.337Z,1.90
2019-04-28T09:33:51.452Z,1.60
2019-04-28T09:36:22.278Z,1.60
2019-04-28T09:38:53.350Z,1.72
2019-04-28T09:41:24.344Z,1.52
2019-04-28T09:44:02.966Z,1.40
2019-04-28T09:46:37.072Z,1.60
2019-04-28T09:49:08.551Z,1.40
2019-04-28T09:51:39.219Z,1.32
2019-04-28T09:54:10.284Z,1.30
2019-04-28T09:56:41.865Z,1.20
2019-04-28T09:59:13.101Z,1.30
2019-04-28T10:01:44.888Z,1.90
2019-04-28T10:04:18.291Z,1.70
2019-04-28T10:06:51.226Z,1.60
2019-04-28T10:09:25.912Z,1.70
2019-04-28T10:12:00.871Z,2.00
2019-04-28T10:14:33.781Z,2.10
2019-04-28T10:17:07.644Z,2.05
2019-04-28T10:19:40.738Z,2.55
2019-04-28T10:22:15.586Z,3.10
2019-04-28T10:24:48.153Z,2.30
2019-04-28T10:27:21.525Z,2.58
2019-04-28T10:29:54.280Z,1.87
2019-04-28T10:32:25.697Z,2.58
2019-04-28T10:34:56.883Z,2.33
2019-04-28T10:37:28.959Z,2.17
2019-04-28T10:40:07.918Z,1.80
2019-04-28T10:42:41.321Z,2.25
2019-04-28T10:45:16.163Z,2.20
2019-04-28T10:47:48.095Z,2.67
2019-04-28T10:50:21.508Z,2.60
2019-04-28T10:52:53.381Z,2.87
2019-04-28T10:55:24.728Z,2.22
2019-04-28T10:57:56.081Z,2.67
2019-04-28T11:00:29.364Z,2.45
2019-04-28T11:03:01.694Z,2.40
2019-04-28T11:05:45.793Z,2.67
2019-04-28T11:08:39.457Z,2.62
2019-04-28T11:11:22.059Z,2.60
2019-04-28T11:13:52.498Z,2.20
2019-04-28T11:16:26.136Z,2.02
2019-04-28T11:18:57.046Z,2.20
2019-04-28T11:21:27.770Z,1.90
2019-04-28T11:23:58.795Z,2.08
2019-04-28T11:26:29.714Z,2.20
2019-04-28T11:29:01.284Z,2.25
2019-04-28T11:31:32.195Z,1.70
2019-04-28T11:34:23.875Z,1.92
2019-04-28T11:36:54.670Z,2.00
2019-04-28T11:39:31.484Z,2.05
2019-04-28T11:42:02.334Z,2.17
2019-04-28T11:44:33.073Z,2.00
2019-04-28T11:47:05.910Z,1.87
2019-04-28T11:49:36.620Z,1.40
2019-04-28T11:52:07.653Z,1.92
2019-04-28T11:54:38.488Z,2.02
2019-04-28T11:57:09.331Z,1.75
2019-04-28T11:59:40.250Z,1.75
2019-04-28T12:02:11.403Z,1.60
2019-04-28T12:04:42.396Z,1.90
2019-04-28T12:07:13.191Z,1.57
2019-04-28T12:09:49.655Z,1.30
2019-04-28T12:12:39.199Z,1.70
2019-04-28T12:15:23.359Z,2.00
2019-04-28T12:18:13.130Z,1.57
2019-04-28T12:20:44.343Z,1.67
2019-04-28T12:23:15.775Z,1.60
2019-04-28T12:25:46.707Z,1.67
2019-04-28T12:28:17.680Z,1.87
2019-04-28T12:30:48.768Z,1.70
2019-04-28T12:33:19.908Z,1.70
2019-04-28T12:35:51.414Z,1.57
2019-04-28T12:38:22.204Z,1.30
2019-04-28T12:40:53.366Z,1.42
2019-04-28T12:43:24.461Z,1.42
2019-04-28T12:45:55.463Z,1.37
2019-04-28T12:48:26.122Z,1.45
2019-04-28T12:50:57.137Z,1.30
2019-04-28T12:53:28.111Z,1.40
2019-04-28T12:55:59.281Z,1.62
2019-04-28T12:58:29.929Z,1.30
2019-04-28T13:01:31.149Z,1.67
2019-04-28T13:04:21.054Z,1.55
2019-04-28T13:07:19.934Z,17.77
2019-04-28T13:09:51.271Z,3.25
2019-04-28T13:12:22.420Z,2.35
2019-04-28T13:14:53.248Z,1.65
2019-04-28T13:17:24.158Z,1.80
2019-04-28T13:19:56.227Z,1.82
2019-04-28T13:22:26.835Z,2.22
2019-04-28T13:24:58.012Z,1.60
2019-04-28T13:27:28.890Z,2.50
2019-04-28T13:29:59.983Z,1.70
2019-04-28T13:32:30.496Z,1.60
2019-04-28T13:35:01.783Z,1.85
2019-04-28T13:37:37.893Z,1.80
2019-04-28T13:40:15.164Z,1.82
2019-04-28T13:43:04.081Z,1.82
2019-04-28T13:45:44.276Z,1.70
2019-04-28T13:48:15.388Z,1.77
2019-04-28T13:50:48.913Z,1.82
2019-04-28T13:53:19.031Z,1.50
2019-04-28T13:55:57.035Z,1.50
2019-04-28T13:58:31.142Z,1.67
2019-04-28T14:01:24.838Z,1.75
2019-04-28T14:04:23.208Z,1.65
2019-04-28T14:07:19.152Z,1.70
2019-04-28T14:09:50.212Z,1.90
2019-04-28T14:12:21.658Z,1.95
2019-04-28T14:14:52.605Z,1.90
2019-04-28T14:17:23.722Z,2.00
2019-04-28T14:19:54.614Z,2.15
2019-04-28T14:22:25.822Z,2.00
2019-04-28T14:24:56.778Z,1.90
2019-04-28T14:27:27.692Z,1.90
2019-04-28T14:29:58.527Z,2.02
2019-04-28T14:32:29.385Z,1.87
2019-04-28T14:35:02.954Z,1.90
2019-04-28T14:37:36.158Z,1.87
2019-04-28T14:40:09.093Z,2.20
2019-04-28T14:42:44.792Z,2.42
2019-04-28T14:45:17.972Z,2.80
2019-04-28T14:47:51.920Z,2.70
2019-04-28T14:50:25.923Z,2.80
2019-04-28T14:52:57.746Z,3.02
2019-04-28T14:55:32.916Z,2.98
2019-04-28T14:58:04.388Z,2.80
2019-04-28T15:00:40.360Z,3.05
2019-04-28T15:03:13.749Z,2.98
2019-04-28T15:05:55.143Z,2.50
2019-04-28T15:08:41.530Z,2.83
2019-04-28T15:11:23.989Z,2.85
2019-04-28T15:13:55.645Z,2.50
2019-04-28T15:16:31.117Z,2.75
2019-04-28T15:19:04.297Z,2.80
2019-04-28T15:21:36.294Z,2.80
2019-04-28T15:24:07.935Z,2.45
2019-04-28T15:26:39.348Z,2.35
2019-04-28T15:29:10.958Z,2.47
2019-04-28T15:31:42.827Z,2.33
2019-04-28T15:34:14.718Z,2.35
2019-04-28T15:36:46.763Z,2.20
2019-04-28T15:39:18.235Z,2.33
2019-04-28T15:41:49.856Z,2.40
2019-04-28T15:44:21.605Z,2.15
2019-04-28T15:46:53.444Z,2.25
2019-04-28T15:49:24.970Z,2.20
2019-04-28T15:51:56.867Z,2.02
2019-04-28T15:54:29.249Z,2.40
2019-04-28T15:57:00.827Z,2.10
2019-04-28T15:59:32.323Z,2.10
2019-04-28T16:02:03.938Z,2.00
2019-04-28T16:04:35.743Z,2.10
2019-04-28T16:07:07.318Z,1.90
2019-04-28T16:09:41.085Z,2.00
2019-04-28T16:12:11.962Z,1.80
2019-04-28T16:14:43.440Z,1.80
2019-04-28T16:17:14.886Z,1.90
2019-04-28T16:19:46.299Z,1.95
2019-04-28T16:22:18.100Z,2.00
2019-04-28T16:24:49.589Z,1.95
2019-04-28T16:27:21.332Z,1.82
2019-04-28T16:29:52.839Z,1.95
2019-04-28T16:32:26.164Z,1.90
2019-04-28T16:34:57.168Z,1.87
2019-04-28T16:37:38.749Z,1.90
2019-04-28T16:40:00.797Z,1.60
2019-04-28T16:42:41.061Z,1.60
2019-04-28T16:45:22.307Z,1.80
2019-04-28T16:47:53.125Z,1.82
2019-04-28T16:50:24.159Z,1.77
2019-04-28T16:52:55.164Z,1.87
2019-04-28T16:55:32.731Z,1.90
2019-04-28T16:58:26.565Z,1.75
2019-04-28T17:01:25.610Z,2.15
2019-04-28T17:03:56.451Z,2.10
2019-04-28T17:06:27.542Z,1.80
2019-04-28T17:08:58.746Z,1.47
2019-04-28T17:11:29.882Z,1.60
2019-04-28T17:14:00.728Z,1.50
2019-04-28T17:16:32.118Z,1.50
2019-04-28T17:19:02.914Z,1.70
2019-04-28T17:21:33.888Z,1.40
2019-04-28T17:24:05.263Z,1.85
2019-04-28T17:26:36.268Z,1.52
2019-04-28T17:29:07.175Z,1.70
2019-04-28T17:31:41.692Z,1.50
2019-04-28T17:34:13.759Z,1.57
2019-04-28T17:36:45.639Z,1.37
2019-04-28T17:39:19.157Z,1.25
2019-04-28T17:41:50.106Z,1.27
2019-04-28T17:44:21.100Z,1.22
2019-04-28T17:46:52.122Z,1.30
2019-04-28T17:49:31.857Z,1.42
2019-04-28T17:52:03.861Z,1.30
2019-04-28T17:54:35.943Z,1.12
2019-04-28T17:57:07.667Z,1.30
2019-04-28T17:59:39.507Z,1.10
2019-04-28T18:02:32.954Z,1.60
2019-04-28T18:05:14.656Z,42.17
2019-04-28T18:07:47.591Z,29.70
2019-04-28T18:10:19.627Z,26.25
2019-04-28T18:13:00.333Z,14.58
2019-04-28T18:15:34.703Z,11.08
2019-04-28T18:18:13.585Z,9.58
2019-04-28T18:20:44.229Z,8.58
2019-04-28T18:23:15.073Z,7.83
2019-04-28T18:25:45.772Z,7.20
2019-04-28T18:28:16.453Z,6.85
2019-04-28T18:31:04.844Z,6.08
2019-04-28T18:33:46.406Z,5.37
2019-04-28T18:36:22.932Z,4.78
2019-04-28T18:38:59.356Z,4.87
2019-04-28T18:42:04.097Z,5.00
2019-04-28T18:44:35.092Z,4.25
2019-04-28T18:47:05.634Z,4.30
2019-04-28T18:49:36.357Z,4.12
2019-04-28T18:52:07.128Z,4.47
2019-04-28T18:54:38.349Z,5.08
2019-04-28T18:57:08.790Z,5.80
2019-04-28T18:59:39.957Z,6.05
2019-04-28T19:02:16.724Z,5.75
2019-04-28T19:04:47.950Z,6.53
2019-04-28T19:07:23.770Z,6.75
2019-04-28T19:10:03.891Z,6.92
2019-04-28T19:12:49.421Z,7.25
2019-04-28T19:15:37.918Z,6.78
2019-04-28T19:18:13.759Z,7.70
2019-04-28T19:20:44.731Z,7.85
2019-04-28T19:23:15.578Z,7.62
2019-04-28T19:25:46.734Z,8.38
2019-04-28T19:28:17.991Z,7.83
2019-04-28T19:30:48.839Z,7.55
2019-04-28T19:33:19.560Z,8.05
2019-04-28T19:35:50.399Z,8.78
2019-04-28T19:38:21.134Z,8.20
2019-04-28T19:40:52.021Z,7.90
2019-04-28T19:43:22.929Z,8.60
2019-04-28T19:45:57.297Z,9.43
2019-04-28T19:48:28.290Z,8.50
2019-04-28T19:50:59.367Z,8.55
2019-04-28T19:53:31.946Z,9.65
2019-04-28T19:56:08.940Z,8.88
2019-04-28T19:58:47.440Z,10.35
2019-04-28T20:01:36.323Z,9.95
2019-04-28T20:04:07.009Z,9.70
2019-04-28T20:06:37.475Z,8.80
2019-04-28T20:09:08.639Z,9.58
2019-04-28T20:11:39.568Z,9.43
2019-04-28T20:14:10.723Z,9.60
2019-04-28T20:16:41.572Z,8.23
2019-04-28T20:19:12.384Z,8.75
2019-04-28T20:21:43.653Z,8.55
2019-04-28T20:24:14.767Z,8.55
2019-04-28T20:26:45.951Z,8.45
2019-04-28T20:29:16.861Z,7.70
2019-04-28T20:31:47.885Z,8.73
2019-04-28T20:34:19.177Z,7.17
2019-04-28T20:37:18.027Z,7.50
2019-04-28T20:39:51.971Z,6.47
2019-04-28T20:42:42.994Z,7.35
2019-04-28T20:45:15.039Z,7.30
2019-04-28T20:47:46.370Z,7.30
2019-04-28T20:50:17.306Z,7.55
2019-04-28T20:52:48.237Z,7.90
2019-04-28T20:55:19.196Z,8.90
2019-04-28T20:57:50.274Z,9.13
2019-04-28T21:00:21.077Z,8.35
2019-04-28T21:02:52.103Z,8.38
2019-04-28T21:05:23.096Z,8.15
2019-04-28T21:07:54.331Z,8.03
2019-04-28T21:10:37.159Z,8.95
2019-04-28T21:13:00.672Z,9.20
2019-04-28T21:15:34.032Z,8.63
2019-04-28T21:18:07.998Z,9.18
2019-04-28T21:20:42.462Z,8.10
2019-04-28T21:23:17.222Z,8.05
2019-04-28T21:25:50.568Z,8.95
2019-04-28T21:28:24.349Z,9.15
2019-04-28T21:30:57.578Z,9.13
2019-04-28T21:33:31.886Z,8.33
2019-04-28T21:36:05.414Z,8.90
2019-04-28T21:38:39.342Z,8.53
2019-04-28T21:41:14.734Z,7.72
2019-04-28T21:44:00.714Z,8.85
2019-04-28T21:46:46.355Z,8.53
2019-04-28T21:49:28.302Z,8.80
2019-04-28T21:52:00.024Z,8.05
2019-04-28T21:54:31.733Z,9.08
2019-04-28T21:57:02.825Z,8.68
2019-04-28T21:59:33.612Z,8.93
2019-04-28T22:02:05.316Z,9.05
2019-04-28T22:04:37.767Z,8.43
2019-04-28T22:07:12.983Z,8.15
2019-04-28T22:09:44.559Z,7.08
2019-04-28T22:12:16.183Z,7.42
2019-04-28T22:14:47.624Z,7.45
2019-04-28T22:17:19.316Z,7.28
2019-04-28T22:19:50.802Z,7.65
2019-04-28T22:22:21.560Z,6.78
2019-04-28T22:25:04.569Z,6.78
2019-04-28T22:27:41.665Z,6.72
2019-04-28T22:30:11.595Z,6.40
2019-04-28T22:32:42.369Z,6.60
2019-04-28T22:35:13.168Z,6.80
2019-04-28T22:37:43.867Z,6.67
2019-04-28T22:40:14.839Z,5.78
2019-04-28T22:42:45.779Z,5.72
2019-04-28T22:45:16.733Z,5.30
2019-04-28T22:47:47.559Z,5.20
2019-04-28T22:50:52.185Z,4.40
2019-04-28T22:53:30.953Z,4.80
2019-04-28T22:56:30.544Z,4.50
2019-04-28T22:59:07.815Z,4.53
2019-04-28T23:01:44.435Z,4.60
2019-04-28T23:04:22.176Z,4.20
2019-04-28T23:06:53.322Z,4.15
2019-04-28T23:09:25.679Z,3.55
2019-04-28T23:11:56.525Z,4.30
2019-04-28T23:14:29.620Z,4.15
2019-04-28T23:17:02.783Z,3.98
2019-04-28T23:19:36.293Z,4.33
2019-04-28T23:22:16.776Z,3.30
2019-04-28T23:24:48.739Z,3.72
2019-04-28T23:27:20.894Z,3.70
2019-04-28T23:29:55.811Z,3.98
2019-04-28T23:32:26.903Z,3.72
2019-04-28T23:34:59.504Z,3.30
2019-04-28T23:37:32.417Z,3.25
2019-04-28T23:40:05.312Z,3.20
2019-04-28T23:42:42.693Z,3.35
2019-04-28T23:45:15.745Z,3.40
2019-04-28T23:47:49.258Z,2.92
2019-04-28T23:50:27.918Z,3.00
2019-04-28T23:53:09.281Z,3.17
2019-04-28T23:55:41.405Z,2.98
2019-04-28T23:58:12.193Z,2.98
